Main page
METAR-TAF:

METAR-TAF

Airports :

Teresina Airport

Teresina, Piauí, Brazil

latitude: 05-03S, longitude: 042-49W, elevation: 69 m

Current weather observation

The report was made 29 minutes ago, at 04:00 UTC
Wind 6 kt from the North/Northwest
Temperature 25°C
Humidity 83%
Pressure 1012 hPa
Visibility 10 km or more
no clouds below 1500 m and no cumulonimbus

METAR: SBTE 140400Z 34006KT CAVOK 25/22 Q1012

Time: 01:29 (04:29 UTC)

Forecast

The report was made 6 hours and 29 minutes ago, at 22:00 UTC
Forecast valid from 14 at 00 UTC to 14 at 12 UTC
Wind 5 kt from the North/Northwest
Visibility 10 km or more
Few clouds at a height of 2000 ft
Becoming
from 14 at 09 UTC to 14 at 11 UTC
Broken clouds at a height of 1500 ft

TAF: SBTE 132200Z 1400/1412 33005KT 9999 FEW020 TX29/1400Z TN24/1409Z BECMG 1409/1411 BKN015 RMK PCH

Weather observations and forecasts of more than 4000 airports (METAR and TAF reports).

The available stations are represented by yellow and red dots on the map.

Hover mouse over dot to see the name of the station.

Then click to see weather observations and forecasts.

To change the map : click on the green buttons with a black cross to zoom in, on the green button with a dash to zoom out, or on the green arrows for adjacent maps.


METAR-TAF: